Time;durP1;ratioP1;P1;durP2;ratioP2;P2;SDS_P1;SDS_P2;PMS_P1;PMS_P2;Temp;Humidity;BMP_temperature;BMP_pressure;BME280_temperature;BME280_humidity;BME280_pressure;Samples;Min_cycle;Max_cycle;Signal;HPM_P1;HPM_P2
2021/07/30 00:00:49;;;;;;;10.75;8.50;;;;;;;22.16;100.00;95969.50;5020266;28;20049;-56
2021/07/30 00:03:18;;;;;;;10.77;8.30;;;;;;;22.35;100.00;95963.00;5037892;28;20459;-51
2021/07/30 00:05:50;;;;;;;12.43;7.82;;;;;;;22.60;100.00;95970.03;5011391;28;20033;-52
2021/07/30 00:08:21;;;;;;;9.38;7.88;;;;;;;22.86;100.00;95964.22;5027926;28;20084;-56
2021/07/30 00:10:54;;;;;;;10.23;7.90;;;;;;;22.66;100.00;95963.75;5045227;28;20071;-53
2021/07/30 00:13:23;;;;;;;12.57;8.30;;;;;;;22.69;100.00;95961.41;5021649;28;20044;-49
2021/07/30 00:15:52;;;;;;;12.65;8.77;;;;;;;22.58;100.00;95962.22;5025580;28;20131;-54
2021/07/30 00:18:21;;;;;;;10.38;8.27;;;;;;;22.67;100.00;95963.50;5041939;28;20052;-48
2021/07/30 00:20:49;;;;;;;11.93;8.05;;;;;;;23.13;100.00;95961.09;5023093;28;20406;-57
2021/07/30 00:23:20;;;;;;;9.98;8.32;;;;;;;23.09;100.00;95957.22;5029335;28;20053;-55
2021/07/30 00:25:48;;;;;;;10.13;8.13;;;;;;;22.75;100.00;95954.28;5047363;28;20423;-55
2021/07/30 00:28:17;;;;;;;10.98;8.32;;;;;;;22.62;100.00;95955.34;5019706;28;20072;-53
2021/07/30 00:30:46;;;;;;;12.77;8.50;;;;;;;22.27;100.00;95952.59;5043683;28;20128;-51
2021/07/30 00:33:15;;;;;;;10.70;8.00;;;;;;;22.07;100.00;95963.59;5021140;28;20492;-51
2021/07/30 00:35:44;;;;;;;11.85;8.00;;;;;;;22.33;100.00;95961.59;5033653;28;20088;-54
2021/07/30 00:38:12;;;;;;;9.45;7.32;;;;;;;22.86;100.00;95953.47;5041051;28;20053;-51
2021/07/30 00:40:43;;;;;;;13.15;8.23;;;;;;;22.46;100.00;95961.38;5027792;28;20037;-49
2021/07/30 00:43:12;;;;;;;10.95;7.63;;;;;;;22.45;100.00;95963.25;5032762;28;20515;-54
2021/07/30 00:45:40;;;;;;;11.63;8.25;;;;;;;22.80;100.00;95958.97;5035389;28;20488;-54
2021/07/30 00:48:09;;;;;;;9.55;7.63;;;;;;;22.49;100.00;95967.09;5036101;28;20546;-51
2021/07/30 00:50:39;;;;;;;9.70;7.30;;;;;;;22.74;100.00;95961.50;5037360;28;20037;-52
2021/07/30 00:53:07;;;;;;;11.73;7.32;;;;;;;22.53;100.00;95970.16;5041599;28;20041;-55
2021/07/30 00:55:37;;;;;;;10.75;8.07;;;;;;;22.40;100.00;95970.34;5028867;28;20483;-50
2021/07/30 00:58:08;;;;;;;12.15;7.68;;;;;;;22.23;100.00;95976.41;5018297;28;20546;-53
2021/07/30 01:00:38;;;;;;;11.15;8.00;;;;;;;21.94;100.00;95971.84;5025414;28;20522;-48
2021/07/30 01:03:07;;;;;;;11.38;8.30;;;;;;;21.81;100.00;95984.38;5044036;28;20041;-56
2021/07/30 01:05:36;;;;;;;17.27;8.77;;;;;;;21.85;100.00;95982.09;5026321;28;20037;-50
2021/07/30 01:08:06;;;;;;;9.57;8.10;;;;;;;21.48;100.00;95979.47;5019510;28;20200;-48
2021/07/30 01:10:35;;;;;;;10.55;8.43;;;;;;;21.52;100.00;95983.34;5022523;28;20048;-51
2021/07/30 01:13:04;;;;;;;10.13;8.13;;;;;;;21.50;100.00;95969.31;5036179;28;20055;-52
2021/07/30 01:15:34;;;;;;;13.35;9.20;;;;;;;21.66;100.00;95972.44;5015385;28;20067;-53
2021/07/30 01:18:03;;;;;;;;;;;;;;;21.45;100.00;95965.69;5040928;28;20041;-54
2021/07/30 01:20:36;;;;;;;13.63;9.63;;;;;;;21.50;100.00;95960.44;5025578;28;19956;-49
2021/07/30 01:23:09;;;;;;;11.25;9.45;;;;;;;21.82;100.00;95963.75;5044634;28;20445;-52
2021/07/30 01:25:37;;;;;;;11.00;9.18;;;;;;;22.12;100.00;95966.41;5028042;28;20458;-55
2021/07/30 01:28:06;;;;;;;11.30;9.30;;;;;;;22.15;100.00;95965.16;5027675;28;20069;-52
2021/07/30 01:30:35;;;;;;;12.60;8.68;;;;;;;21.92;100.00;95974.78;5040621;28;20045;-53
2021/07/30 01:33:04;;;;;;;16.50;7.80;;;;;;;21.60;100.00;95967.97;5038218;28;20504;-50
2021/07/30 01:35:33;;;;;;;10.55;8.07;;;;;;;21.76;100.00;95970.03;5038292;28;20065;-54
2021/07/30 01:38:03;;;;;;;10.30;7.70;;;;;;;22.16;100.00;95974.84;5039092;28;20068;-50
2021/07/30 01:40:33;;;;;;;12.50;8.13;;;;;;;21.72;100.00;95969.66;5024287;28;20033;-47
2021/07/30 01:43:02;;;;;;;10.55;8.15;;;;;;;22.18;100.00;95964.72;5024804;28;20423;-53
2021/07/30 01:45:31;;;;;;;12.05;8.75;;;;;;;21.75;100.00;95968.41;5047210;28;20063;-50
2021/07/30 01:48:00;;;;;;;10.15;9.05;;;;;;;21.81;100.00;95967.47;5042971;28;20519;-51
2021/07/30 01:50:29;;;;;;;10.98;8.60;;;;;;;22.26;100.00;95967.91;5027434;28;20041;-56
2021/07/30 01:52:58;;;;;;;11.70;8.55;;;;;;;22.47;100.00;95966.53;5018006;28;20055;-53
2021/07/30 01:55:26;;;;;;;10.07;8.30;;;;;;;22.04;100.00;95972.94;5040427;28;20479;-48
2021/07/30 01:57:57;;;;;;;10.45;9.13;;;;;;;21.90;100.00;95973.34;5036689;28;20038;-50
2021/07/30 02:00:25;;;;;;;11.75;8.23;;;;;;;21.59;100.00;95972.53;5018973;28;20075;-54
2021/07/30 02:02:54;;;;;;;12.18;8.13;;;;;;;22.50;100.00;95966.06;5043774;28;20539;-50
2021/07/30 02:05:23;;;;;;;10.88;8.10;;;;;;;22.50;100.00;95963.41;5026773;28;20515;-53
2021/07/30 02:07:52;;;;;;;10.60;8.35;;;;;;;22.27;100.00;95969.53;5024808;28;20033;-51
2021/07/30 02:10:21;;;;;;;10.45;8.35;;;;;;;22.46;100.00;95962.19;5024096;28;20038;-52
2021/07/30 02:15:39;;;;;;;11.13;9.07;;;;;;;22.47;100.00;95955.78;5043701;28;20526;-53
2021/07/30 02:18:08;;;;;;;9.45;7.68;;;;;;;22.31;100.00;95963.69;5041827;28;20087;-50
2021/07/30 02:20:37;;;;;;;10.02;8.48;;;;;;;22.26;100.00;95956.31;5037767;28;20061;-50
2021/07/30 02:23:05;;;;;;;11.43;8.20;;;;;;;22.32;100.00;95958.09;5041213;28;20081;-53
2021/07/30 02:25:34;;;;;;;10.88;8.48;;;;;;;22.44;100.00;95966.19;5041105;28;20080;-51
2021/07/30 02:28:02;;;;;;;11.38;9.23;;;;;;;22.30;100.00;95970.09;5039598;28;20542;-49
2021/07/30 02:30:30;;;;;;;12.50;8.75;;;;;;;22.32;100.00;95968.84;5039537;28;20681;-48
2021/07/30 02:33:00;;;;;;;13.10;9.27;;;;;;;22.38;100.00;95965.22;5033950;28;20061;-55
2021/07/30 02:35:29;;;;;;;12.68;8.68;;;;;;;22.13;100.00;95975.31;5039364;28;20072;-48
2021/07/30 02:37:57;;;;;;;11.02;8.73;;;;;;;21.60;100.00;95974.16;5044667;28;20081;-56
2021/07/30 02:40:25;;;;;;;14.38;8.80;;;;;;;21.45;100.00;95979.91;5033814;28;20069;-49
2021/07/30 02:42:55;;;;;;;12.82;9.30;;;;;;;21.45;100.00;95990.66;5041966;28;20526;-53
2021/07/30 02:45:23;;;;;;;12.43;9.88;;;;;;;21.30;100.00;95992.84;5043905;28;20045;-54
2021/07/30 02:47:52;;;;;;;13.48;9.32;;;;;;;22.13;100.00;95994.13;5039485;28;20503;-52
2021/07/30 02:50:22;;;;;;;14.90;9.52;;;;;;;21.40;100.00;95995.03;5032444;28;20068;-51
2021/07/30 02:53:01;;;;;;;12.88;8.52;;;;;;;21.96;100.00;95988.56;5041625;28;20081;-55
2021/07/30 02:55:39;;;;;;;12.73;8.98;;;;;;;21.67;100.00;95996.34;5041671;28;20478;-53
2021/07/30 02:58:07;;;;;;;13.68;9.50;;;;;;;21.63;100.00;95994.34;5047943;28;20076;-49
2021/07/30 03:00:36;;;;;;;14.70;9.02;;;;;;;21.76;100.00;96002.25;5042255;28;20065;-51
2021/07/30 03:03:05;;;;;;;13.45;8.35;;;;;;;21.47;100.00;95999.31;5042721;28;20045;-53
2021/07/30 03:05:35;;;;;;;10.52;8.88;;;;;;;21.85;100.00;96006.25;5035240;28;20079;-50
2021/07/30 03:08:07;;;;;;;13.05;8.93;;;;;;;22.26;100.00;95999.28;5038070;28;20069;-52
2021/07/30 03:10:36;;;;;;;13.25;8.80;;;;;;;22.09;100.00;96014.38;5026676;28;20069;-50
2021/07/30 03:13:04;;;;;;;13.40;9.25;;;;;;;22.24;100.00;96009.47;5039715;28;20431;-49
2021/07/30 03:15:33;;;;;;;16.33;9.68;;;;;;;21.66;100.00;96010.00;5045368;28;20064;-52
2021/07/30 03:18:01;;;;;;;11.80;8.88;;;;;;;21.34;100.00;96002.13;5027554;28;20073;-52
2021/07/30 03:20:30;;;;;;;11.73;8.95;;;;;;;21.03;100.00;96008.41;5043024;28;20076;-53
2021/07/30 03:23:00;;;;;;;12.27;8.82;;;;;;;21.35;100.00;96006.44;5042642;28;20068;-49
2021/07/30 03:25:28;;;;;;;13.27;9.20;;;;;;;21.86;100.00;96005.22;5038802;28;21360;-55
2021/07/30 03:27:57;;;;;;;13.68;9.40;;;;;;;22.12;100.00;96004.00;5045732;28;20068;-53
2021/07/30 03:30:25;;;;;;;12.70;9.65;;;;;;;22.22;100.00;96004.31;5045131;28;20480;-54
2021/07/30 03:32:54;;;;;;;12.50;9.25;;;;;;;22.39;100.00;96006.34;5039975;28;20076;-52
2021/07/30 03:35:22;;;;;;;12.88;9.40;;;;;;;21.38;100.00;96011.38;5040698;28;20467;-50
2021/07/30 03:37:51;;;;;;;14.43;9.48;;;;;;;21.95;100.00;96019.94;5046764;28;20061;-54
2021/07/30 03:40:21;;;;;;;10.85;9.32;;;;;;;22.02;100.00;96018.00;5038535;28;20076;-49
2021/07/30 03:42:49;;;;;;;13.60;9.60;;;;;;;21.52;100.00;96014.72;5039189;28;20065;-55
2021/07/30 03:45:17;;;;;;;14.43;9.65;;;;;;;21.98;100.00;96015.97;5042340;28;20312;-49
2021/07/30 03:47:46;;;;;;;12.68;9.45;;;;;;;21.69;100.00;96021.09;5041153;28;20068;-55
2021/07/30 03:50:14;;;;;;;14.10;9.30;;;;;;;21.84;100.00;96015.34;5039850;28;20471;-55
2021/07/30 03:52:43;;;;;;;12.77;9.65;;;;;;;21.40;100.00;96011.94;5040984;28;20081;-51
2021/07/30 03:55:11;;;;;;;12.68;8.88;;;;;;;21.88;100.00;96008.47;5043576;28;20560;-50
2021/07/30 03:57:41;;;;;;;11.77;8.85;;;;;;;22.06;100.00;96018.38;5042702;28;20065;-53
2021/07/30 04:00:11;;;;;;;12.73;9.73;;;;;;;21.84;100.00;96023.41;5040396;28;20557;-50
2021/07/30 04:02:39;;;;;;;11.83;9.03;;;;;;;22.59;100.00;96019.47;5037917;28;20065;-53
2021/07/30 04:05:09;;;;;;;14.13;9.73;;;;;;;21.39;100.00;96015.69;5038126;28;20118;-54
2021/07/30 04:07:37;;;;;;;13.65;9.23;;;;;;;21.53;100.00;96016.34;5045842;28;20073;-54
2021/07/30 04:10:07;;;;;;;13.23;9.65;;;;;;;22.41;100.00;96010.44;5046501;28;20064;-55
2021/07/30 04:12:35;;;;;;;15.13;9.77;;;;;;;21.75;100.00;96003.28;5042369;28;20546;-57
2021/07/30 04:15:07;;;;;;;13.55;8.98;;;;;;;21.03;100.00;95998.50;5045669;28;20065;-53
2021/07/30 04:17:35;;;;;;;14.50;9.70;;;;;;;21.27;100.00;96004.03;5033357;28;20065;-54
2021/07/30 04:22:44;;;;;;;13.77;9.32;;;;;;;23.07;100.00;95999.69;5004286;28;20038;-50
2021/07/30 04:25:13;;;;;;;14.77;9.35;;;;;;;24.01;100.00;96000.28;5007514;28;20088;-51
2021/07/30 04:27:41;;;;;;;11.05;8.40;;;;;;;23.84;100.00;95996.72;5007951;28;20068;-54
2021/07/30 04:30:12;;;;;;;11.18;8.05;;;;;;;23.26;100.00;95992.28;5006942;28;20069;-51
2021/07/30 04:32:40;;;;;;;;;;;;;;;23.31;100.00;95995.91;5000936;28;20092;-52
2021/07/30 04:35:09;;;;;;;11.15;7.78;;;;;;;24.10;100.00;95992.66;5004317;28;19964;-48
2021/07/30 04:37:37;;;;;;;10.00;8.00;;;;;;;25.71;86.01;95988.44;5004457;28;21034;-48
2021/07/30 04:40:07;;;;;;;10.57;8.38;;;;;;;25.98;79.75;95983.91;4998674;28;20069;-52
2021/07/30 04:42:35;;;;;;;10.18;8.20;;;;;;;25.35;85.79;95979.84;4986331;28;20064;-49
2021/07/30 04:45:04;;;;;;;14.70;8.48;;;;;;;25.89;82.33;95981.91;4996266;28;20074;-51
2021/07/30 04:47:34;;;;;;;11.50;8.45;;;;;;;26.14;77.48;95990.28;5003116;28;20070;-48
2021/07/30 04:50:02;;;;;;;8.90;7.95;;;;;;;26.14;79.83;95998.38;5006053;28;20078;-50
2021/07/30 04:52:31;;;;;;;9.05;8.07;;;;;;;26.64;75.23;96002.69;5001582;28;21413;-52
2021/07/30 04:55:00;;;;;;;8.95;7.97;;;;;;;28.04;65.09;95981.56;4999776;28;20069;-55
2021/07/30 04:57:28;;;;;;;9.88;7.38;;;;;;;28.60;60.42;95987.94;5005536;28;20086;-53
2021/07/30 04:59:56;;;;;;;11.88;7.00;;;;;;;27.16;68.28;95988.47;4998493;28;20057;-55
2021/07/30 05:02:25;;;;;;;9.30;7.65;;;;;;;25.42;89.13;95995.88;4999702;28;20088;-50
2021/07/30 05:04:56;;;;;;;10.02;8.88;;;;;;;27.17;74.48;95992.81;5005048;28;20093;-55
2021/07/30 05:07:24;;;;;;;;;;;;;;;28.63;61.50;95990.13;5006112;28;20061;-51
2021/07/30 05:09:52;;;;;;;9.32;7.95;;;;;;;26.92;73.62;95985.31;4998056;28;19973;-50
2021/07/30 05:12:21;;;;;;;8.45;7.55;;;;;;;26.43;80.30;95995.44;4995736;28;20524;-52
2021/07/30 05:14:49;;;;;;;12.07;7.70;;;;;;;29.15;59.63;95974.63;4999793;28;20045;-54
2021/07/30 05:17:20;;;;;;;9.88;7.68;;;;;;;28.14;62.88;95990.53;5004383;28;20081;-53
2021/07/30 05:19:48;;;;;;;12.35;7.35;;;;;;;28.11;65.38;95999.22;5003409;28;20464;-53
2021/07/30 05:22:18;;;;;;;10.88;7.55;;;;;;;27.05;74.34;96004.88;5003522;28;20070;-50
2021/07/30 05:24:46;;;;;;;11.93;7.68;;;;;;;26.89;80.31;95996.66;5002703;28;20068;-51
2021/07/30 05:27:15;;;;;;;8.82;7.32;;;;;;;26.17;94.62;95995.16;4996281;28;20093;-51
2021/07/30 05:29:45;;;;;;;10.23;7.88;;;;;;;27.66;79.72;95987.09;4997327;28;20085;-49
2021/07/30 05:32:13;;;;;;;11.57;8.18;;;;;;;28.96;65.15;95981.69;5002661;28;20077;-54
2021/07/30 05:34:45;;;;;;;9.80;7.47;;;;;;;29.20;60.64;95984.66;5002967;28;20081;-50
2021/07/30 05:37:13;;;;;;;8.52;7.15;;;;;;;30.18;54.73;95985.97;5006173;28;20073;-50
2021/07/30 05:39:43;;;;;;;10.90;7.45;;;;;;;29.94;54.43;95983.91;5004802;28;20089;-54
2021/07/30 05:42:11;;;;;;;9.13;7.22;;;;;;;29.22;57.48;95985.22;5003342;28;20060;-49
2021/07/30 05:44:40;;;;;;;10.55;7.55;;;;;;;27.54;68.23;95988.41;4979759;28;20058;-52
2021/07/30 05:47:09;;;;;;;9.23;7.45;;;;;;;28.75;62.83;95978.97;5005900;28;20499;-54
2021/07/30 05:49:37;;;;;;;9.25;7.28;;;;;;;27.01;79.42;95977.50;5005282;28;20073;-52
2021/07/30 05:52:06;;;;;;;11.77;7.57;;;;;;;28.13;69.59;95980.78;5001382;28;20064;-55
2021/07/30 05:54:37;;;;;;;9.23;7.70;;;;;;;26.77;85.99;95979.78;4998804;28;20077;-51
2021/07/30 05:57:07;;;;;;;13.73;7.75;;;;;;;28.31;71.75;95976.75;5003640;28;20136;-48
2021/07/30 05:59:35;;;;;;;8.70;7.80;;;;;;;28.32;68.08;95972.13;4998870;28;20070;-52
2021/07/30 06:02:04;;;;;;;13.18;8.30;;;;;;;28.07;69.61;95968.28;5002369;28;20096;-50
2021/07/30 06:04:34;;;;;;;9.50;8.05;;;;;;;26.42;83.53;95981.06;5005668;28;20681;-52
2021/07/30 06:07:03;;;;;;;13.18;8.70;;;;;;;27.23;77.89;95968.50;4986306;28;20057;-51
2021/07/30 06:09:31;;;;;;;12.57;9.13;;;;;;;26.91;82.32;95975.56;5002741;28;20072;-52
2021/07/30 06:12:00;;;;;;;11.05;8.70;;;;;;;26.85;85.19;95971.19;4994092;28;20089;-49
2021/07/30 06:14:30;;;;;;;11.88;8.98;;;;;;;26.14;92.62;95984.88;5002231;28;20068;-49
2021/07/30 06:17:01;;;;;;;10.95;8.48;;;;;;;26.85;82.20;95982.00;5004331;28;20716;-51
2021/07/30 06:19:30;;;;;;;11.00;8.63;;;;;;;26.43;88.21;95996.25;4998869;28;21355;-53
2021/07/30 06:21:59;;;;;;;11.13;8.52;;;;;;;26.23;92.17;95994.16;4999863;28;20061;-51
2021/07/30 06:24:27;;;;;;;10.65;8.48;;;;;;;27.50;83.08;95980.00;5000618;28;20518;-49
2021/07/30 06:26:56;;;;;;;17.92;8.80;;;;;;;27.07;90.81;95981.88;5004120;28;20065;-52
2021/07/30 06:29:24;;;;;;;14.43;9.10;;;;;;;27.58;80.28;95971.34;5000317;28;20088;-51
2021/07/30 06:31:54;;;;;;;11.85;9.00;;;;;;;27.34;78.94;95975.59;5010658;28;20073;-52
2021/07/30 06:34:22;;;;;;;10.40;9.27;;;;;;;27.75;78.92;95975.78;5004806;28;20069;-53
2021/07/30 06:36:55;;;;;;;13.18;9.15;;;;;;;28.15;72.70;95966.97;5006393;28;20526;-52
2021/07/30 06:39:24;;;;;;;10.20;9.10;;;;;;;26.54;84.33;95978.25;5003608;28;20088;-49
2021/07/30 06:41:52;;;;;;;14.35;9.20;;;;;;;26.93;84.32;95980.72;5002690;28;20066;-52
2021/07/30 06:44:22;;;;;;;14.07;8.73;;;;;;;28.05;75.67;95981.31;5008764;28;20484;-50
2021/07/30 06:46:51;;;;;;;11.00;8.75;;;;;;;27.54;80.73;95985.72;5006027;28;20108;-50
2021/07/30 06:49:21;;;;;;;13.00;8.32;;;;;;;28.13;75.36;95977.25;5007260;28;20070;-50
2021/07/30 06:51:49;;;;;;;12.50;8.52;;;;;;;27.81;73.81;95977.44;5003137;28;20069;-53
2021/07/30 06:54:18;;;;;;;12.73;8.27;;;;;;;28.33;70.18;95981.91;5001642;28;20163;-53
2021/07/30 06:56:47;;;;;;;11.15;8.00;;;;;;;27.86;78.45;95983.69;4999885;28;20054;-53
2021/07/30 06:59:15;;;;;;;9.38;8.02;;;;;;;28.34;74.93;95980.81;5005320;28;20066;-50
2021/07/30 07:01:44;;;;;;;12.27;8.90;;;;;;;28.07;73.18;95994.59;5005553;28;20540;-54
2021/07/30 07:04:12;;;;;;;10.85;8.50;;;;;;;27.25;79.55;95994.19;4999586;28;20065;-53
2021/07/30 07:06:42;;;;;;;10.38;8.55;;;;;;;28.06;74.86;95996.50;5008442;28;20080;-51
2021/07/30 07:09:10;;;;;;;12.20;9.00;;;;;;;28.30;73.83;95991.41;5003808;28;20062;-55
2021/07/30 07:11:39;;;;;;;9.73;8.05;;;;;;;28.70;72.56;95991.72;4999656;28;20072;-52
2021/07/30 07:14:07;;;;;;;12.02;8.43;;;;;;;29.06;68.99;95982.50;5004417;28;20166;-52
2021/07/30 07:16:36;;;;;;;10.95;8.25;;;;;;;28.92;66.19;95984.13;5003642;28;20078;-52
2021/07/30 07:19:05;;;;;;;13.38;9.15;;;;;;;28.67;72.48;95973.28;5001264;28;20523;-52
2021/07/30 07:21:34;;;;;;;11.93;9.40;;;;;;;27.16;84.26;95974.13;4996893;28;20072;-52
2021/07/30 07:24:04;;;;;;;13.35;8.95;;;;;;;29.13;69.60;95968.66;5007154;28;20069;-55
2021/07/30 07:26:32;;;;;;;;;;;;;;;29.23;67.81;95965.91;5004028;28;20088;-50
2021/07/30 07:29:01;;;;;;;11.70;9.25;;;;;;;29.01;69.67;95973.53;5005551;28;20403;-50
2021/07/30 07:31:29;;;;;;;11.32;8.73;;;;;;;29.53;67.31;95965.00;5006516;28;20312;-55
2021/07/30 07:33:58;;;;;;;12.48;10.48;;;;;;;29.57;64.13;95966.09;5005484;28;20524;-52
2021/07/30 07:36:26;;;;;;;12.77;9.10;;;;;;;29.42;67.35;95976.19;4999733;28;20076;-55
2021/07/30 07:38:54;;;;;;;11.60;9.52;;;;;;;29.89;61.60;95964.88;5005716;28;20065;-55
2021/07/30 07:41:25;;;;;;;12.88;9.80;;;;;;;29.84;62.89;95967.63;5006574;28;20089;-52
2021/07/30 07:43:54;;;;;;;12.95;9.80;;;;;;;28.63;72.29;95970.28;5005916;28;20578;-53
2021/07/30 07:46:22;;;;;;;12.52;9.90;;;;;;;28.88;74.30;95966.75;5005485;28;20068;-55
2021/07/30 07:48:50;;;;;;;13.88;11.00;;;;;;;29.28;67.86;95965.06;4995842;28;20471;-53
2021/07/30 07:51:19;;;;;;;12.40;10.20;;;;;;;30.62;63.18;95966.06;5002100;28;20085;-52
2021/07/30 07:53:47;;;;;;;12.30;10.52;;;;;;;30.09;64.01;95963.16;5006051;28;20080;-55
2021/07/30 07:56:15;;;;;;;16.83;10.48;;;;;;;29.74;61.10;95965.78;5000311;28;20093;-51
2021/07/30 07:58:45;;;;;;;13.18;10.88;;;;;;;29.64;63.67;95963.09;5006733;28;20096;-51
2021/07/30 08:01:14;;;;;;;17.73;10.57;;;;;;;30.41;60.79;95958.06;5001666;28;20066;-48
2021/07/30 08:03:44;;;;;;;13.43;10.45;;;;;;;30.32;59.59;95958.94;4985482;28;20069;-52
2021/07/30 08:06:17;;;;;;;11.25;10.00;;;;;;;30.66;57.91;95967.13;4997444;28;20073;-53
2021/07/30 08:08:46;;;;;;;11.68;9.90;;;;;;;30.81;56.85;95961.59;5001323;28;20054;-52
2021/07/30 08:11:14;;;;;;;13.40;10.07;;;;;;;30.28;59.37;95958.69;5006224;28;20076;-54
2021/07/30 08:13:44;;;;;;;13.13;9.60;;;;;;;30.33;61.22;95963.31;5007207;28;20073;-55
2021/07/30 08:16:13;;;;;;;;;;;;;;;30.73;60.02;95962.19;5000730;28;20065;-49
2021/07/30 08:18:41;;;;;;;11.00;8.43;;;;;;;30.86;60.44;95958.81;5000798;28;20277;-54
2021/07/30 08:21:10;;;;;;;12.20;8.85;;;;;;;29.74;65.57;95962.25;5002458;28;20713;-53
2021/07/30 08:23:39;;;;;;;11.85;8.48;;;;;;;31.43;54.92;95953.66;4998974;28;20061;-54
2021/07/30 08:26:07;;;;;;;10.95;8.40;;;;;;;31.35;52.68;95955.09;5003516;28;20544;-53
2021/07/30 08:28:35;;;;;;;11.85;8.35;;;;;;;31.22;57.07;95950.31;5005509;28;20078;-52
2021/07/30 08:31:05;;;;;;;11.20;8.38;;;;;;;31.66;55.52;95943.84;4999321;28;20069;-49
2021/07/30 08:33:35;;;;;;;15.85;7.35;;;;;;;31.52;53.73;95956.53;5001792;28;20472;-53
2021/07/30 08:36:07;;;;;;;11.07;7.70;;;;;;;30.64;54.00;95959.25;5001185;28;20073;-47
2021/07/30 08:38:35;;;;;;;9.25;7.13;;;;;;;32.32;52.86;95953.06;4998004;28;20058;-48
2021/07/30 08:41:04;;;;;;;8.68;7.78;;;;;;;31.42;53.76;95955.56;5006641;28;20077;-53
2021/07/30 08:43:36;;;;;;;8.75;7.85;;;;;;;32.64;46.40;95959.69;5007315;28;20092;-53
2021/07/30 08:46:06;;;;;;;9.15;7.30;;;;;;;32.63;47.78;95952.63;5004006;28;20062;-51
2021/07/30 08:48:35;;;;;;;8.20;7.35;;;;;;;32.98;46.15;95960.22;4998265;28;20044;-52
2021/07/30 08:51:04;;;;;;;10.23;7.15;;;;;;;32.56;48.19;95958.47;5001888;28;20072;-49
2021/07/30 08:53:32;;;;;;;8.57;7.15;;;;;;;32.51;49.53;95956.59;5004074;28;20069;-53
2021/07/30 08:56:03;;;;;;;12.38;7.60;;;;;;;32.24;50.75;95951.78;5004251;28;20469;-52
2021/07/30 08:58:33;;;;;;;9.85;7.28;;;;;;;31.63;52.18;95952.59;5004501;28;20402;-49
2021/07/30 09:01:01;;;;;;;;;;;;;;;32.76;47.07;95947.19;4996700;28;20080;-53
2021/07/30 09:03:38;;;;;;;8.90;7.40;;;;;;;31.68;53.17;95949.81;5000980;28;19956;-52
2021/07/30 09:06:14;;;;;;;12.10;7.35;;;;;;;32.15;49.36;95940.75;4992660;28;20062;-53
2021/07/30 09:08:42;;;;;;;13.10;8.02;;;;;;;32.50;48.95;95938.59;4998754;28;20069;-50
2021/07/30 09:11:11;;;;;;;11.07;7.85;;;;;;;32.03;56.03;95934.09;5002740;28;20528;-52
2021/07/30 09:13:42;;;;;;;12.95;8.48;;;;;;;31.57;53.36;95937.41;5005675;28;20078;-54
2021/07/30 09:16:12;;;;;;;10.95;7.75;;;;;;;32.91;47.91;95932.47;4992026;28;20066;-53
2021/07/30 09:18:44;;;;;;;14.70;7.90;;;;;;;32.01;48.94;95936.31;5005582;28;20073;-49
2021/07/30 09:21:19;;;;;;;9.10;7.95;;;;;;;32.68;46.46;95936.94;5003284;28;20061;-53
2021/07/30 09:23:48;;;;;;;10.75;7.82;;;;;;;32.84;48.74;95930.13;4998046;28;20065;-51
2021/07/30 09:26:37;;;;;;;11.20;7.80;;;;;;;31.74;50.99;95926.81;5005676;28;20539;-53
2021/07/30 09:29:08;;;;;;;10.77;7.60;;;;;;;32.38;49.96;95928.13;4999546;28;20106;-50
2021/07/30 09:31:41;;;;;;;10.60;7.63;;;;;;;31.15;53.87;95922.59;5007325;28;20089;-53
2021/07/30 09:34:16;;;;;;;9.05;7.45;;;;;;;31.14;55.36;95926.41;5002177;28;20127;-51
2021/07/30 09:36:46;;;;;;;8.10;7.30;;;;;;;32.15;50.56;95918.91;4997299;28;20516;-50
2021/07/30 09:39:18;;;;;;;9.82;6.93;;;;;;;31.87;51.96;95915.22;5005182;28;20081;-51
2021/07/30 09:42:00;;;;;;;9.25;7.28;;;;;;;32.01;51.97;95914.50;4997263;28;20141;-52
2021/07/30 09:44:29;;;;;;;9.88;8.18;;;;;;;31.36;53.67;95915.03;4998609;28;20054;-52
2021/07/30 09:47:09;;;;;;;10.93;8.43;;;;;;;31.52;53.08;95908.31;4998108;28;20594;-53
2021/07/30 09:49:43;;;;;;;8.40;7.53;;;;;;;31.76;57.42;95901.97;5001798;28;20073;-52
2021/07/30 09:52:13;;;;;;;8.98;7.45;;;;;;;32.66;49.78;95900.13;5002693;28;20461;-49
2021/07/30 09:54:45;;;;;;;;;;;;;;;32.80;50.17;95893.59;5002190;28;20542;-54
2021/07/30 09:57:15;;;;;;;8.38;6.88;;;;;;;32.13;50.08;95896.56;4999489;28;19953;-52
2021/07/30 09:59:45;;;;;;;8.23;6.80;;;;;;;33.07;45.15;95895.59;4996569;28;20061;-53
2021/07/30 10:02:18;;;;;;;8.95;6.88;;;;;;;33.60;45.60;95899.75;5000852;28;20077;-54
2021/07/30 10:04:49;;;;;;;8.15;6.57;;;;;;;32.51;48.27;95890.28;5005396;28;20089;-51
2021/07/30 10:07:20;;;;;;;7.20;6.50;;;;;;;32.34;52.47;95890.78;5007116;28;20550;-53
2021/07/30 10:09:54;;;;;;;7.65;6.85;;;;;;;32.17;49.47;95891.31;5008026;28;20088;-54
2021/07/30 10:12:22;;;;;;;8.40;7.15;;;;;;;32.47;47.12;95892.00;5002911;28;20069;-54
2021/07/30 10:14:51;;;;;;;9.57;7.03;;;;;;;32.42;49.09;95889.31;5005988;28;20084;-47
2021/07/30 10:17:28;;;;;;;10.75;7.07;;;;;;;33.14;44.17;95881.53;5004043;28;20074;-53
2021/07/30 10:19:59;;;;;;;8.50;6.50;;;;;;;33.11;44.71;95873.13;5008847;28;20074;-54
2021/07/30 10:22:34;;;;;;;7.60;6.80;;;;;;;33.67;44.11;95880.22;5007864;28;20081;-50
2021/07/30 10:25:04;;;;;;;9.57;7.32;;;;;;;33.10;45.69;95869.56;5009097;28;20084;-53
2021/07/30 10:27:33;;;;;;;8.57;7.60;;;;;;;33.53;42.96;95872.03;4998288;28;20521;-54
2021/07/30 10:30:07;;;;;;;8.68;6.57;;;;;;;33.00;43.79;95870.59;5006217;28;20900;-51
2021/07/30 10:33:01;;;;;;;7.72;7.03;;;;;;;34.45;41.37;95864.47;5004745;28;20448;-51
2021/07/30 10:35:46;;;;;;;9.00;7.20;;;;;;;34.75;41.18;95865.63;4998927;28;20058;-56
2021/07/30 10:38:20;;;;;;;8.70;6.82;;;;;;;34.98;39.35;95852.69;5005247;28;20085;-53
2021/07/30 10:41:13;;;;;;;8.30;7.10;;;;;;;33.62;40.18;95855.69;5005335;28;20078;-53
2021/07/30 10:44:07;;;;;;;8.75;6.97;;;;;;;33.87;42.69;95843.38;4999690;28;20333;-55
2021/07/30 10:46:36;;;;;;;8.07;7.22;;;;;;;34.03;42.85;95844.66;4986077;28;20100;-55
2021/07/30 10:49:40;;;;;;;7.75;6.97;;;;;;;33.99;40.72;95851.84;5010287;28;20490;-50
2021/07/30 10:52:29;;;;;;;9.23;7.57;;;;;;;34.06;39.60;95851.44;5002029;28;20528;-56
2021/07/30 10:54:58;;;;;;;10.38;7.10;;;;;;;34.85;36.85;95846.19;5001688;28;20058;-51
2021/07/30 10:57:51;;;;;;;9.15;6.97;;;;;;;34.59;39.28;95835.09;5005897;28;20057;-56
2021/07/30 11:00:20;;;;;;;6.97;6.15;;;;;;;34.77;36.29;95835.19;5002131;28;20544;-55
2021/07/30 11:03:05;;;;;;;7.32;6.63;;;;;;;34.34;37.38;95838.44;5005372;28;20077;-55
2021/07/30 11:05:35;;;;;;;6.85;6.15;;;;;;;35.14;35.72;95833.94;5001717;28;20122;-56
2021/07/30 11:08:05;;;;;;;7.00;5.70;;;;;;;34.01;38.28;95831.31;5004397;28;20084;-48
2021/07/30 11:10:33;;;;;;;;;;;;;;;33.62;38.55;95836.53;5002603;28;20615;-55
2021/07/30 11:13:05;;;;;;;7.25;6.55;;;;;;;33.92;38.03;95837.78;5002538;28;19964;-53
2021/07/30 11:15:34;;;;;;;7.75;6.57;;;;;;;33.84;38.55;95830.31;5003231;28;20065;-54
2021/07/30 11:18:03;;;;;;;6.82;6.20;;;;;;;33.66;38.53;95829.38;5003217;28;20091;-55
2021/07/30 11:20:34;;;;;;;6.93;6.18;;;;;;;33.93;38.38;95817.50;5006860;28;20057;-55
2021/07/30 11:23:07;;;;;;;7.75;6.28;;;;;;;34.49;36.15;95819.72;5006476;28;20528;-53
2021/07/30 11:25:38;;;;;;;7.05;6.22;;;;;;;35.75;35.30;95817.63;5000067;28;20331;-56
2021/07/30 11:28:07;;;;;;;7.32;6.53;;;;;;;34.48;35.88;95814.53;5000380;28;20068;-53
2021/07/30 11:30:35;;;;;;;9.68;6.60;;;;;;;33.92;38.10;95826.84;5001393;28;20077;-52
2021/07/30 11:33:04;;;;;;;8.40;6.72;;;;;;;33.25;38.37;95817.34;5001383;28;20076;-52
2021/07/30 11:35:40;;;;;;;7.85;5.72;;;;;;;33.61;39.82;95818.53;5000226;28;20085;-51
2021/07/30 11:38:10;;;;;;;7.22;6.47;;;;;;;33.93;37.47;95820.25;5006507;28;20081;-53
2021/07/30 11:40:39;;;;;;;7.10;6.40;;;;;;;34.00;38.19;95815.22;5002073;28;20090;-53
2021/07/30 11:43:08;;;;;;;7.95;6.57;;;;;;;33.88;37.49;95812.16;5003592;28;20066;-51
2021/07/30 11:45:38;;;;;;;6.93;6.22;;;;;;;34.25;39.16;95811.03;5002591;28;20069;-52